< Typhoon 202004 2020 Season Typhoon 202006 >
Typhoon 202005 (JANGMI)
General InformationTrack Information on Google MapsDetailed Wind InformationForecast History on Google MapsAccess Analytics MapList of All Images || NewsDisaster Info.WeblogTrackbackTyphoon FrontTwiphoonTyphoon Now!Typhoon ImaginationJMA Disaster Info. XMLResourceGoogle EarthGE AnimationAtom FeedGeoJSON
Detalied Best Track (Time Zone = UTC)
Year Month Day Hour Lat. Long. Pressure (hPa) Wind (kt) Class Image Chart
2020 8 6 18 14.2 127.5 1006 0 2 Image Chart
2020 8 7 00 14.7 127.3 1006 0 2 Image Chart
2020 8 7 06 15.2 127.2 1006 0 2 Image Chart
2020 8 7 12 15.7 127.0 1004 0 2 Image Chart
2020 8 7 18 16.3 127.0 1002 0 2 Image Chart
2020 8 8 00 17.0 126.9 1002 0 2 Image Chart
2020 8 8 06 18.1 126.6 1000 0 2 Image Chart
2020 8 8 12 19.4 126.4 1002 0 2 Image Chart
2020 8 8 18 20.8 126.4 998 35 3 Image Chart
2020 8 9 00 23.0 126.4 996 40 3 Image Chart
2020 8 9 06 25.3 126.2 996 40 3 Image Chart
2020 8 9 12 27.8 126.3 994 45 3 Image Chart
2020 8 9 18 29.5 126.8 994 45 3 Image Chart
2020 8 9 21 30.8 127.3 994 45 3 Image Chart
2020 8 10 00 32.1 127.7 996 40 3 Image Chart
2020 8 10 03 33.3 128.1 996 40 3 Image Chart
2020 8 10 06 34.6 128.5 996 40 3 Image Chart
2020 8 10 09 35.8 129.2 998 35 3 Image Chart
2020 8 10 12 37.2 130.0 998 35 3 Image Chart
2020 8 10 18 40.0 132.2 998 35 3 Image Chart
2020 8 11 00 43.0 135.9 998 35 3 Image Chart
2020 8 11 06 44.3 139.5 998 0 6 Image Chart
2020 8 11 12 45.9 143.4 996 0 6 Image Chart
2020 8 11 18 47.0 147.6 996 0 6 Image Chart
2020 8 12 00 47.8 151.5 994 0 6 Image Chart
2020 8 12 06 48.3 153.6 992 0 6 Image Chart
2020 8 12 12 48.8 155.3 992 0 6 Image Chart
2020 8 12 18 49.0 157.6 990 0 6 Image Chart
2020 8 13 00 49.4 158.7 990 0 6 Image Chart
2020 8 13 06 49.5 159.6 990 0 6 Image Chart
2020 8 13 12 49.4 160.1 990 0 6 Image Chart
2020 8 13 18 49.4 161.1 992 0 6 Image Chart
2020 8 14 00 49.3 162.1 992 0 6 Image Chart
2020 8 14 06 49.7 162.1 996 0 6 Image Chart
2020 8 14 12 49.3 162.5 998 0 6 Image Chart
2020 8 14 18 49.1 162.7 998 0 6 Image Chart
Japan Meteorological Agency Best Track Data | Correction Date : 2020-11-27
< Typhoon 202004 2020 Season Typhoon 202006 >

Help